Time;durP1;ratioP1;P1;durP2;ratioP2;P2;SDS_P1;SDS_P2;PMS_P1;PMS_P2;Temp;Humidity;BMP_temperature;BMP_pressure;BME280_temperature;BME280_humidity;BME280_pressure;Samples;Min_cycle;Max_cycle;Signal;HPM_P1;HPM_P2
2024/04/20 00:00:24;;;;;;;7.78;3.83;;;24.50;99.90;;;;;;5392957;21;19988;-52
2024/04/20 00:02:53;;;;;;;5.15;2.95;;;24.50;99.90;;;;;;5380357;26;19996;-52
2024/04/20 00:05:20;;;;;;;9.82;3.80;;;24.50;99.90;;;;;;5380541;26;20011;-52
2024/04/20 00:07:47;;;;;;;8.85;3.20;;;24.50;99.90;;;;;;5380393;26;20024;-53
2024/04/20 00:10:13;;;;;;;7.85;2.85;;;24.50;99.90;;;;;;5380083;26;20028;-52
2024/04/20 00:12:39;;;;;;;6.60;3.28;;;24.50;99.90;;;;;;5380369;26;20505;-52
2024/04/20 00:15:06;;;;;;;9.18;3.42;;;24.50;99.90;;;;;;5380218;26;20011;-51
2024/04/20 00:17:32;;;;;;;8.80;3.47;;;24.50;99.90;;;;;;5380185;26;20000;-52
2024/04/20 00:19:58;;;;;;;6.60;3.88;;;24.50;99.90;;;;;;5380043;26;20011;-52
2024/04/20 00:22:24;;;;;;;6.63;3.30;;;24.50;99.90;;;;;;5380367;26;20028;-53
2024/04/20 00:24:50;;;;;;;6.63;3.50;;;24.50;99.90;;;;;;5380100;26;20000;-53
2024/04/20 00:27:16;;;;;;;7.03;3.67;;;24.50;99.90;;;;;;5380164;26;19996;-52
2024/04/20 00:29:42;;;;;;;6.57;3.75;;;24.50;99.90;;;;;;5380255;26;20460;-52
2024/04/20 00:32:08;;;;;;;7.07;3.58;;;24.50;99.90;;;;;;5379794;26;19997;-52
2024/04/20 00:34:34;;;;;;;6.47;3.40;;;24.40;99.90;;;;;;5378042;26;20046;-53
2024/04/20 00:37:00;;;;;;;6.00;3.08;;;24.50;99.90;;;;;;5380158;26;20004;-52
2024/04/20 00:39:26;;;;;;;7.50;3.85;;;24.50;99.90;;;;;;5380178;26;20000;-53
2024/04/20 00:41:53;;;;;;;6.22;3.60;;;24.40;99.90;;;;;;5380075;26;20456;-52
2024/04/20 00:44:20;;;;;;;9.90;4.13;;;24.40;99.90;;;;;;5379161;26;19996;-52
2024/04/20 00:46:47;;;;;;;5.05;2.92;;;24.40;99.90;;;;;;5379342;26;20000;-53
2024/04/20 00:49:14;;;;;;;5.90;3.28;;;24.40;99.90;;;;;;5380007;26;19997;-51
2024/04/20 00:51:42;;;;;;;8.18;3.38;;;24.40;99.90;;;;;;5379744;26;20011;-52
2024/04/20 00:54:10;;;;;;;7.97;3.55;;;24.40;99.90;;;;;;5379948;26;20000;-53
2024/04/20 00:56:36;;;;;;;;;;;24.40;99.90;;;;;;5380336;26;20020;-53
2024/04/20 00:59:02;;;;;;;8.60;3.38;;;24.40;99.90;;;;;;5379897;26;19925;-53
2024/04/20 01:01:28;;;;;;;5.78;3.15;;;24.40;99.90;;;;;;5380351;26;19999;-52
2024/04/20 01:03:55;;;;;;;5.93;3.50;;;24.40;99.90;;;;;;5377810;26;20405;-52
2024/04/20 01:06:20;;;;;;;7.85;3.85;;;24.40;99.90;;;;;;5379426;26;19992;-52
2024/04/20 01:08:47;;;;;;;6.30;3.40;;;24.40;99.90;;;;;;5407164;26;20332;-53
2024/04/20 01:11:15;;;;;;;6.82;3.20;;;24.30;99.90;;;;;;5380788;26;20436;-53
2024/04/20 01:13:48;;;;;;;8.60;3.42;;;24.40;99.90;;;;;;5383242;26;20428;-53
2024/04/20 01:16:14;;;;;;;5.93;2.90;;;24.30;99.90;;;;;;5382999;26;20004;-53
2024/04/20 01:18:39;;;;;;;7.93;4.15;;;24.30;99.90;;;;;;5381468;26;19993;-53
2024/04/20 01:21:05;;;;;;;8.52;3.55;;;24.30;99.90;;;;;;5382917;26;19992;-53
2024/04/20 01:23:31;;;;;;;5.80;2.92;;;24.30;99.90;;;;;;5383016;26;20485;-53
2024/04/20 01:25:57;;;;;;;5.47;3.13;;;24.30;99.90;;;;;;5382905;26;19992;-53
2024/04/20 01:28:23;;;;;;;6.53;3.53;;;24.30;99.90;;;;;;5382612;26;19992;-53
2024/04/20 01:30:49;;;;;;;6.57;3.60;;;24.30;99.90;;;;;;5382817;26;19992;-53
2024/04/20 01:33:15;;;;;;;7.47;3.20;;;24.30;99.90;;;;;;5382741;26;20418;-53
2024/04/20 01:35:41;;;;;;;7.75;3.83;;;24.30;99.90;;;;;;5383129;26;20004;-53
2024/04/20 01:38:08;;;;;;;6.63;3.70;;;24.30;99.90;;;;;;5382926;26;20019;-52
2024/04/20 01:40:34;;;;;;;8.40;3.80;;;24.30;99.90;;;;;;5382855;26;20003;-52
2024/04/20 01:42:59;;;;;;;6.05;3.67;;;24.30;99.90;;;;;;5410411;26;20002;-52
2024/04/20 01:45:25;;;;;;;7.85;3.45;;;24.20;99.90;;;;;;5382682;26;20336;-52
2024/04/20 01:47:51;;;;;;;6.35;3.50;;;24.30;99.90;;;;;;5382606;26;20000;-53
2024/04/20 01:50:17;;;;;;;7.30;3.03;;;24.20;99.90;;;;;;5382354;26;20000;-52
2024/04/20 01:52:43;;;;;;;5.57;2.95;;;24.30;99.90;;;;;;5380982;26;19992;-52
2024/04/20 01:55:09;;;;;;;4.18;3.13;;;24.20;99.90;;;;;;5381017;26;20304;-52
2024/04/20 01:57:35;;;;;;;5.40;3.20;;;24.20;99.90;;;;;;5382575;26;20003;-52
2024/04/20 02:00:01;;;;;;;8.50;3.08;;;24.20;99.90;;;;;;5382556;26;19992;-53
2024/04/20 02:02:27;;;;;;;6.57;3.05;;;24.20;99.90;;;;;;5396017;21;20012;-51
2024/04/20 02:04:53;;;;;;;8.00;3.28;;;24.20;99.90;;;;;;5380584;26;20007;-50
2024/04/20 02:07:19;;;;;;;7.70;2.90;;;24.20;99.90;;;;;;5382339;26;20073;-50
2024/04/20 02:09:45;;;;;;;5.28;3.03;;;24.20;99.90;;;;;;5382571;26;20336;-50
2024/04/20 02:12:11;;;;;;;8.35;3.08;;;24.20;99.90;;;;;;5354160;26;20074;-49
2024/04/20 02:14:37;;;;;;;7.65;3.33;;;24.20;99.90;;;;;;5352448;26;20471;-50
2024/04/20 02:17:03;;;;;;;6.00;2.95;;;24.20;99.90;;;;;;5366691;26;20119;-50
2024/04/20 02:19:29;;;;;;;8.60;3.22;;;24.20;99.90;;;;;;5409415;26;20445;-50
2024/04/20 02:21:55;;;;;;;5.38;2.88;;;24.20;99.90;;;;;;5408420;26;20074;-51
2024/04/20 02:24:21;;;;;;;5.95;3.38;;;24.20;99.90;;;;;;5381430;26;20345;-51
2024/04/20 02:26:47;;;;;;;6.28;3.00;;;24.20;99.90;;;;;;5381313;26;20008;-51
2024/04/20 02:29:13;;;;;;;5.65;2.53;;;24.20;99.90;;;;;;5381926;26;20076;-52
2024/04/20 02:31:39;;;;;;;7.63;2.80;;;24.20;99.90;;;;;;5381311;26;20004;-50
2024/04/20 02:34:05;;;;;;;5.72;3.30;;;24.20;99.90;;;;;;5368155;26;20004;-50
2024/04/20 02:36:31;;;;;;;6.40;2.90;;;24.20;99.90;;;;;;5358270;26;20552;-50
2024/04/20 02:38:57;;;;;;;7.65;3.53;;;24.20;99.90;;;;;;5358188;26;20048;-50
2024/04/20 02:41:23;;;;;;;6.68;2.97;;;24.20;99.90;;;;;;5373045;26;20079;-52
2024/04/20 02:43:49;;;;;;;6.30;3.05;;;24.10;99.90;;;;;;5343246;26;20012;-49
2024/04/20 02:46:15;;;;;;;4.88;2.47;;;24.10;99.90;;;;;;5343478;26;20007;-50
2024/04/20 02:48:40;;;;;;;6.90;3.03;;;24.20;99.90;;;;;;5343307;26;20012;-51
2024/04/20 02:51:06;;;;;;;5.68;2.63;;;24.20;99.90;;;;;;5343147;26;20341;-50
2024/04/20 02:53:33;;;;;;;6.22;2.75;;;24.10;99.90;;;;;;5343303;26;20001;-50
2024/04/20 02:55:59;;;;;;;6.30;2.70;;;24.10;99.90;;;;;;5343204;26;20008;-49
2024/04/20 02:58:24;;;;;;;5.90;2.50;;;24.10;99.90;;;;;;5346045;26;20048;-50
2024/04/20 03:01:00;;;;;;;4.18;2.65;;;24.10;99.90;;;;;;5346882;26;20005;-50
2024/04/20 03:03:31;;;;;;;5.88;2.42;;;24.10;99.90;;;;;;5346834;26;20001;-51
2024/04/20 03:05:57;;;;;;;5.30;2.50;;;24.10;99.90;;;;;;5346926;26;19997;-51
2024/04/20 03:08:23;;;;;;;4.07;2.60;;;24.10;99.90;;;;;;5346785;26;20460;-50
2024/04/20 03:10:49;;;;;;;4.15;2.30;;;24.10;99.90;;;;;;5346851;26;20001;-50
2024/04/20 03:13:15;;;;;;;5.10;2.33;;;24.10;99.90;;;;;;5347097;26;20011;-50
2024/04/20 03:15:42;;;;;;;4.50;2.58;;;24.10;99.90;;;;;;5346353;26;20011;-50
2024/04/20 03:18:09;;;;;;;9.32;3.67;;;24.10;99.90;;;;;;5346459;26;20004;-50
2024/04/20 03:20:36;;;;;;;7.55;2.20;;;24.00;99.90;;;;;;5346557;26;20001;-51
2024/04/20 03:23:02;;;;;;;5.90;2.50;;;24.00;99.90;;;;;;5346385;26;20341;-50
2024/04/20 03:25:28;;;;;;;6.45;2.17;;;24.00;99.90;;;;;;5346532;26;20008;-50
2024/04/20 03:27:53;;;;;;;5.82;2.88;;;24.10;99.90;;;;;;5346347;26;20000;-51
2024/04/20 03:30:19;;;;;;;4.68;2.20;;;24.00;99.90;;;;;;5346027;26;20001;-50
2024/04/20 03:32:45;;;;;;;3.20;1.90;;;24.00;99.90;;;;;;5346496;26;20001;-51
2024/04/20 03:35:11;;;;;;;5.43;2.40;;;24.00;99.90;;;;;;5345732;26;20008;-50
2024/04/20 03:37:39;;;;;;;5.30;2.33;;;24.00;99.90;;;;;;5373776;26;19997;-51
2024/04/20 03:40:05;;;;;;;5.25;2.45;;;24.00;99.90;;;;;;5346317;26;20099;-51
2024/04/20 03:42:31;;;;;;;7.05;2.70;;;24.00;99.90;;;;;;5345792;26;20449;-51
2024/04/20 03:44:57;;;;;;;6.88;2.30;;;24.00;99.90;;;;;;5373490;26;20000;-51
2024/04/20 03:47:23;;;;;;;3.90;1.92;;;24.00;99.90;;;;;;5345931;26;20007;-51
2024/04/20 03:49:48;;;;;;;7.85;2.50;;;24.00;99.90;;;;;;5346512;26;20008;-51
2024/04/20 03:52:14;;;;;;;6.68;2.28;;;24.00;99.90;;;;;;5345856;26;20078;-51
2024/04/20 03:54:40;;;;;;;6.05;2.20;;;24.00;99.90;;;;;;5346011;26;20001;-51
2024/04/20 03:57:06;;;;;;;4.63;2.00;;;24.00;99.90;;;;;;5345838;26;20092;-51
2024/04/20 03:59:31;;;;;;;4.38;2.20;;;24.00;99.90;;;;;;5345776;26;20001;-51
2024/04/20 04:01:57;;;;;;;7.82;2.95;;;24.00;99.90;;;;;;5345550;26;20001;-50
2024/04/20 04:04:24;;;;;;;5.15;1.90;;;23.90;99.90;;;;;;5345922;26;19997;-50
2024/04/20 04:06:49;;;;;;;4.95;2.22;;;24.00;99.90;;;;;;5345805;26;20005;-51
2024/04/20 04:09:15;;;;;;;10.30;2.40;;;23.90;99.90;;;;;;5345586;26;19997;-51
2024/04/20 04:11:43;;;;;;;6.35;3.00;;;23.90;99.90;;;;;;5345321;26;20048;-51
2024/04/20 04:14:09;;;;;;;4.45;2.17;;;24.00;99.90;;;;;;5345253;26;20011;-51
2024/04/20 04:16:35;;;;;;;4.63;2.17;;;23.90;99.90;;;;;;5345334;26;20001;-51
2024/04/20 04:19:01;;;;;;;4.53;1.88;;;23.90;99.90;;;;;;5345263;26;20008;-51
2024/04/20 04:21:27;;;;;;;4.40;2.08;;;23.90;99.90;;;;;;5345186;26;20012;-51
2024/04/20 04:23:53;;;;;;;6.63;2.05;;;23.90;99.90;;;;;;5345374;26;20012;-51
2024/04/20 04:26:19;;;;;;;4.70;2.13;;;23.90;99.90;;;;;;5345227;26;20433;-51
2024/04/20 04:28:44;;;;;;;4.90;2.10;;;23.90;99.90;;;;;;5345017;26;20000;-51
2024/04/20 04:31:10;;;;;;;4.18;2.22;;;23.90;99.90;;;;;;5343228;26;20005;-51
2024/04/20 04:33:36;;;;;;;4.70;2.10;;;23.90;99.90;;;;;;5345130;26;20028;-51
2024/04/20 04:36:03;;;;;;;6.53;1.92;;;23.90;99.90;;;;;;5344942;26;20408;-51
2024/04/20 04:38:28;;;;;;;4.13;1.80;;;23.90;99.90;;;;;;5344847;26;20079;-50
2024/04/20 04:40:54;;;;;;;4.78;1.80;;;23.80;99.90;;;;;;5345012;26;20000;-51
2024/04/20 04:43:20;;;;;;;4.78;1.77;;;23.80;99.90;;;;;;5345117;26;20005;-51
2024/04/20 04:45:47;;;;;;;5.75;2.13;;;23.80;99.90;;;;;;5345954;26;20001;-51
2024/04/20 04:48:18;;;;;;;5.45;1.92;;;23.80;99.90;;;;;;5348132;26;20346;-50
2024/04/20 04:50:47;;;;;;;5.57;2.15;;;23.80;99.90;;;;;;5348119;26;20008;-51
2024/04/20 04:53:12;;;;;;;4.93;2.20;;;23.80;99.90;;;;;;5348057;26;20467;-51
2024/04/20 04:55:39;;;;;;;6.15;1.90;;;23.80;99.90;;;;;;5348136;26;20000;-51
2024/04/20 04:58:06;;;;;;;5.95;2.10;;;23.80;99.90;;;;;;5348335;26;20433;-51
2024/04/20 05:00:32;;;;;;;4.55;2.15;;;23.80;99.90;;;;;;5348060;26;20456;-50
2024/04/20 05:02:58;;;;;;;5.43;1.92;;;23.80;99.90;;;;;;5381885;26;19996;-51
2024/04/20 05:05:24;;;;;;;4.28;1.88;;;23.80;99.90;;;;;;5379608;26;20073;-51
2024/04/20 05:07:51;;;;;;;4.72;2.10;;;23.80;99.90;;;;;;5379580;26;20027;-51
2024/04/20 05:10:17;;;;;;;4.90;1.83;;;23.80;99.90;;;;;;5379158;26;20011;-49
2024/04/20 05:12:43;;;;;;;8.15;2.00;;;23.80;99.90;;;;;;5379434;26;19992;-50
2024/04/20 05:15:08;;;;;;;5.53;2.08;;;23.80;99.90;;;;;;5379184;26;20003;-50
2024/04/20 05:17:37;;;;;;;7.13;2.03;;;23.80;99.90;;;;;;5381257;26;20008;-50
2024/04/20 05:20:05;;;;;;;3.25;1.55;;;23.80;99.90;;;;;;5383135;26;19996;-50
2024/04/20 05:22:31;;;;;;;8.27;2.63;;;23.80;99.90;;;;;;5382607;26;20000;-50
2024/04/20 05:24:56;;;;;;;3.53;1.85;;;23.70;99.90;;;;;;5382918;26;20325;-50
2024/04/20 05:27:22;;;;;;;4.68;1.83;;;23.80;99.90;;;;;;5382927;26;20000;-49
2024/04/20 05:29:48;;;;;;;4.45;1.83;;;23.80;99.90;;;;;;5410350;26;20008;-49
2024/04/20 05:32:14;;;;;;;4.38;1.55;;;23.70;99.90;;;;;;5382565;26;19996;-50
2024/04/20 05:34:40;;;;;;;5.85;1.67;;;23.70;99.90;;;;;;5382590;26;19996;-51
2024/04/20 05:37:08;;;;;;;5.03;2.15;;;23.80;99.90;;;;;;5382698;26;20000;-50
2024/04/20 05:39:33;;;;;;;;;;;23.70;99.90;;;;;;5382994;26;19996;-50
2024/04/20 05:42:00;;;;;;;3.08;1.25;;;23.70;99.90;;;;;;5382475;26;20441;-51
2024/04/20 05:44:27;;;;;;;4.80;1.73;;;23.70;99.90;;;;;;5380876;26;20340;-51
2024/04/20 05:46:54;;;;;;;5.35;1.60;;;23.70;99.90;;;;;;5382819;26;20006;-51
2024/04/20 05:49:20;;;;;;;3.55;1.70;;;23.70;99.90;;;;;;5380582;26;19992;-51
2024/04/20 05:51:46;;;;;;;4.70;1.92;;;23.70;99.90;;;;;;5382404;26;20450;-51
2024/04/20 05:54:12;;;;;;;2.88;1.50;;;23.70;99.90;;;;;;5382202;26;19992;-51
2024/04/20 05:56:38;;;;;;;4.00;1.65;;;23.70;99.90;;;;;;5382161;26;20007;-51
2024/04/20 05:59:05;;;;;;;4.00;1.67;;;23.70;99.90;;;;;;5382190;26;19996;-51
2024/04/20 06:01:31;;;;;;;4.68;1.80;;;23.70;99.90;;;;;;5382155;26;20369;-51
2024/04/20 06:03:58;;;;;;;6.07;2.25;;;23.70;99.90;;;;;;5382676;26;19992;-51
2024/04/20 06:06:23;;;;;;;4.95;1.40;;;23.70;99.90;;;;;;5382144;26;20328;-51
2024/04/20 06:08:49;;;;;;;3.65;1.30;;;23.70;99.90;;;;;;5375036;26;20015;-51
2024/04/20 06:11:15;;;;;;;5.68;1.40;;;23.70;99.90;;;;;;5367127;26;20000;-51
2024/04/20 06:13:41;;;;;;;2.88;1.70;;;23.70;99.90;;;;;;5378291;26;19993;-51
2024/04/20 06:16:07;;;;;;;5.03;1.58;;;23.70;99.90;;;;;;5378598;26;19992;-51
2024/04/20 06:18:32;;;;;;;3.35;1.40;;;23.70;99.90;;;;;;5379200;26;20064;-51
2024/04/20 06:20:58;;;;;;;4.40;1.50;;;23.70;99.90;;;;;;5379533;26;20538;-51
2024/04/20 06:23:24;;;;;;;4.88;1.55;;;23.70;99.90;;;;;;5379444;26;19992;-51
2024/04/20 06:25:50;;;;;;;4.85;1.48;;;23.60;99.90;;;;;;5379233;26;20003;-51
2024/04/20 06:28:16;;;;;;;3.13;1.30;;;23.60;99.90;;;;;;5382206;26;19992;-52
2024/04/20 06:30:42;;;;;;;4.32;1.10;;;23.60;99.90;;;;;;5381937;26;20424;-51
2024/04/20 06:33:07;;;;;;;2.90;1.50;;;23.60;99.90;;;;;;5381851;26;20069;-52
2024/04/20 06:35:33;;;;;;;5.68;1.27;;;23.70;99.90;;;;;;5380311;26;19992;-52
2024/04/20 06:37:59;;;;;;;3.47;1.30;;;23.60;99.90;;;;;;5380238;26;20309;-51
2024/04/20 06:40:25;;;;;;;4.63;1.67;;;23.60;99.90;;;;;;5381912;26;20033;-52
2024/04/20 06:42:51;;;;;;;2.58;1.05;;;23.60;99.90;;;;;;5381529;26;20040;-52
2024/04/20 06:45:17;;;;;;;3.42;1.30;;;23.60;99.90;;;;;;5381661;26;19995;-52
2024/04/20 06:47:44;;;;;;;5.03;1.48;;;23.60;99.90;;;;;;5379657;26;20007;-51
2024/04/20 06:50:11;;;;;;;3.28;1.38;;;23.60;99.90;;;;;;5381284;26;19992;-51
2024/04/20 06:52:38;;;;;;;4.28;1.75;;;23.60;99.90;;;;;;5381540;26;20003;-51
2024/04/20 06:55:04;;;;;;;3.00;1.40;;;23.60;99.90;;;;;;5381431;26;20065;-51
2024/04/20 06:57:30;;;;;;;4.45;1.42;;;23.60;99.90;;;;;;5381597;26;19992;-51
2024/04/20 06:59:58;;;;;;;3.55;1.13;;;23.50;99.90;;;;;;5381813;26;20007;-51
2024/04/20 07:02:25;;;;;;;2.88;1.33;;;23.60;99.90;;;;;;5381259;26;20361;-51
2024/04/20 07:04:52;;;;;;;4.10;1.50;;;23.60;99.90;;;;;;5379586;26;20004;-51
2024/04/20 07:07:18;;;;;;;2.90;1.42;;;23.60;99.90;;;;;;5380970;26;19996;-51
2024/04/20 07:09:49;;;;;;;3.85;1.13;;;23.60;99.90;;;;;;5380326;26;20031;-51
2024/04/20 07:12:17;;;;;;;6.63;1.52;;;23.60;99.90;;;;;;5381068;26;19996;-52
2024/04/20 07:14:43;;;;;;;5.72;1.80;;;23.60;99.90;;;;;;5379364;26;20004;-51
2024/04/20 07:17:08;;;;;;;3.30;1.30;;;23.60;99.90;;;;;;5381218;26;20073;-50
2024/04/20 07:19:34;;;;;;;3.85;1.20;;;23.60;99.90;;;;;;5381151;26;20614;-51
2024/04/20 07:22:00;;;;;;;4.60;1.60;;;23.60;99.90;;;;;;5381389;26;20000;-50
2024/04/20 07:24:26;;;;;;;6.70;1.88;;;23.60;99.90;;;;;;5381073;26;19996;-51
2024/04/20 07:26:51;;;;;;;5.35;1.63;;;23.60;99.90;;;;;;5350626;26;20239;-51
2024/04/20 07:29:18;;;;;;;3.80;1.50;;;23.60;99.90;;;;;;5381061;26;20000;-51
2024/04/20 07:31:45;;;;;;;3.65;1.35;;;23.60;99.90;;;;;;5380911;26;20514;-51
2024/04/20 07:34:11;;;;;;;6.43;1.70;;;23.60;99.90;;;;;;5381449;26;20435;-50
2024/04/20 07:36:37;;;;;;;3.78;1.70;;;23.60;99.90;;;;;;5379758;26;20007;-51
2024/04/20 07:39:03;;;;;;;3.70;1.58;;;23.60;99.90;;;;;;5379540;26;20028;-52
2024/04/20 07:41:29;;;;;;;3.08;1.23;;;23.60;99.90;;;;;;5381097;26;20445;-50
2024/04/20 07:43:56;;;;;;;5.30;2.08;;;23.60;99.90;;;;;;5381025;26;19997;-51
2024/04/20 07:46:22;;;;;;;;;;;23.60;99.90;;;;;;5381520;26;20452;-51
2024/04/20 07:48:48;;;;;;;5.10;1.70;;;23.70;99.90;;;;;;5381133;26;19968;-50
2024/04/20 07:51:15;;;;;;;3.88;1.58;;;23.70;99.90;;;;;;5381182;26;20023;-51
2024/04/20 07:53:41;;;;;;;4.20;1.80;;;23.60;99.90;;;;;;5380729;26;20436;-55
2024/04/20 07:56:06;;;;;;;4.60;1.42;;;23.60;99.90;;;;;;5378957;26;20007;-51
2024/04/20 07:58:32;;;;;;;5.28;1.45;;;23.70;99.90;;;;;;5381025;26;20436;-51
2024/04/20 08:00:58;;;;;;;3.80;1.70;;;23.70;99.90;;;;;;5380768;26;19996;-50
2024/04/20 08:03:24;;;;;;;2.97;1.67;;;23.70;99.90;;;;;;5380652;26;20352;-50
2024/04/20 08:05:50;;;;;;;3.10;1.50;;;23.70;99.90;;;;;;5380658;26;20406;-51
2024/04/20 08:08:15;;;;;;;3.83;1.73;;;23.70;99.90;;;;;;5380627;26;20522;-51
2024/04/20 08:10:41;;;;;;;5.45;1.58;;;23.70;99.90;;;;;;5380458;26;20068;-50
2024/04/20 08:13:07;;;;;;;5.22;1.73;;;23.70;99.90;;;;;;5380561;26;20008;-51
2024/04/20 08:15:33;;;;;;;3.17;1.60;;;23.70;99.90;;;;;;5380660;26;20007;-51
2024/04/20 08:17:58;;;;;;;4.95;2.17;;;23.70;99.90;;;;;;5380506;26;20015;-50
2024/04/20 08:20:24;;;;;;;4.95;1.88;;;23.70;99.90;;;;;;5380691;26;20007;-51
2024/04/20 08:22:50;;;;;;;6.53;2.38;;;23.70;99.90;;;;;;5383706;26;19996;-50
2024/04/20 08:25:16;;;;;;;4.72;2.15;;;23.70;99.90;;;;;;5382111;26;20340;-50
2024/04/20 08:27:42;;;;;;;6.78;2.20;;;23.70;99.90;;;;;;5383827;26;20007;-50
2024/04/20 08:30:08;;;;;;;3.97;1.35;;;23.70;99.90;;;;;;5383573;26;20056;-51
2024/04/20 08:32:34;;;;;;;5.05;1.70;;;23.70;99.90;;;;;;5383691;26;20014;-50
2024/04/20 08:34:59;;;;;;;4.53;1.60;;;23.80;99.90;;;;;;5383656;26;19996;-51
2024/04/20 08:37:25;;;;;;;5.05;2.10;;;23.80;99.90;;;;;;5383745;26;20065;-50
2024/04/20 08:39:51;;;;;;;4.13;2.00;;;23.80;99.90;;;;;;5383407;26;20443;-50
2024/04/20 08:42:33;;;;;;;4.22;1.80;;;23.80;99.90;;;;;;5383389;26;20329;-51
2024/04/20 08:45:01;;;;;;;5.18;1.52;;;23.80;99.90;;;;;;5383468;26;19996;-50
2024/04/20 08:47:30;;;;;;;4.97;2.08;;;23.80;99.90;;;;;;5383568;26;20000;-50
2024/04/20 08:49:58;;;;;;;4.53;1.85;;;23.80;99.90;;;;;;5383489;26;20104;-51
2024/04/20 08:52:26;;;;;;;3.95;1.70;;;23.80;99.90;;;;;;5383103;26;20011;-50
2024/04/20 08:54:56;;;;;;;5.03;2.13;;;23.80;99.90;;;;;;5383221;26;20061;-50
2024/04/20 08:57:23;;;;;;;6.05;2.50;;;23.80;99.90;;;;;;5383165;26;20007;-50
2024/04/20 08:59:50;;;;;;;6.10;1.92;;;23.80;99.90;;;;;;5383273;26;20004;-50
2024/04/20 09:02:26;;;;;;;6.80;2.55;;;23.80;99.90;;;;;;5383251;26;20008;-50
2024/04/20 09:04:56;;;;;;;5.97;1.60;;;23.70;99.90;;;;;;5381248;26;20000;-50
2024/04/20 09:07:23;;;;;;;5.93;1.67;;;23.80;99.90;;;;;;5382883;26;20007;-52
2024/04/20 09:09:50;;;;;;;10.25;2.40;;;23.80;99.90;;;;;;5383053;26;20046;-52
2024/04/20 09:12:16;;;;;;;6.82;2.53;;;23.80;99.90;;;;;;5382589;26;20356;-51
2024/04/20 09:14:41;;;;;;;3.70;2.10;;;23.80;99.90;;;;;;5382947;26;19997;-51
2024/04/20 09:17:07;;;;;;;8.88;2.33;;;23.80;99.90;;;;;;5381328;26;20339;-51
2024/04/20 09:19:33;;;;;;;5.63;2.38;;;23.80;99.90;;;;;;5374637;26;20005;-51
2024/04/20 09:22:12;;;;;;;7.55;1.98;;;23.80;99.90;;;;;;5353054;26;20012;-51
2024/04/20 09:24:38;;;;;;;5.82;2.28;;;23.80;99.90;;;;;;5367919;26;20005;-50
2024/04/20 09:27:05;;;;;;;5.90;2.28;;;23.80;99.90;;;;;;5365921;26;20011;-51
2024/04/20 09:29:32;;;;;;;6.50;2.30;;;23.80;99.90;;;;;;5366205;26;20020;-51
2024/04/20 09:31:58;;;;;;;7.35;2.25;;;23.80;99.90;;;;;;5381619;26;20468;-50
2024/04/20 09:34:25;;;;;;;6.38;2.50;;;23.90;99.90;;;;;;5382077;26;20011;-51
2024/04/20 09:36:51;;;;;;;5.60;2.35;;;23.90;99.90;;;;;;5374433;26;20012;-49
2024/04/20 09:39:17;;;;;;;3.87;1.80;;;23.90;99.90;;;;;;5350833;26;20044;-50
2024/04/20 09:41:51;;;;;;;7.57;2.38;;;23.90;99.90;;;;;;5351056;26;20054;-50
2024/04/20 09:44:18;;;;;;;6.30;2.80;;;23.90;99.90;;;;;;5344072;26;20008;-50
2024/04/20 09:46:49;;;;;;;5.75;2.08;;;23.90;99.90;;;;;;5344211;26;20063;-51
2024/04/20 09:49:15;;;;;;;4.57;2.30;;;23.90;99.90;;;;;;5371233;26;20372;-51
2024/04/20 09:52:06;;;;;;;5.32;2.03;;;23.90;99.90;;;;;;5343841;26;20377;-51
2024/04/20 09:54:55;;;;;;;10.30;2.40;;;23.90;99.90;;;;;;5343816;26;20012;-50
2024/04/20 09:57:23;;;;;;;4.82;2.45;;;23.90;99.90;;;;;;5338843;26;20004;-50
2024/04/20 09:59:50;;;;;;;5.53;2.03;;;23.90;99.90;;;;;;5347430;26;20329;-50
2024/04/20 10:02:16;;;;;;;6.00;2.22;;;24.00;99.90;;;;;;5347081;26;20368;-48
2024/04/20 10:04:44;;;;;;;4.65;2.00;;;23.90;99.90;;;;;;5347502;26;20034;-51
2024/04/20 10:07:11;;;;;;;5.47;2.22;;;24.00;99.90;;;;;;5374947;26;19997;-51
2024/04/20 10:09:41;;;;;;;8.90;2.63;;;24.00;99.90;;;;;;5347216;26;20457;-50
2024/04/20 10:12:08;;;;;;;7.28;2.42;;;24.00;99.90;;;;;;5374624;26;20001;-50
2024/04/20 10:14:33;;;;;;;8.15;2.42;;;24.00;99.90;;;;;;5346942;26;19997;-51
2024/04/20 10:17:00;;;;;;;6.13;2.10;;;24.00;99.90;;;;;;5347131;26;20004;-51
2024/04/20 10:19:47;;;;;;;4.43;2.23;;;24.00;99.90;;;;;;5346993;26;20008;-51
2024/04/20 10:22:13;;;;;;;12.00;2.95;;;24.00;99.90;;;;;;5346844;26;20012;-51
2024/04/20 10:24:57;;;;;;;5.20;2.15;;;24.10;99.90;;;;;;5374709;26;20001;-51
2024/04/20 10:27:27;;;;;;;6.68;2.15;;;24.10;99.90;;;;;;5346801;26;19996;-51
2024/04/20 10:30:10;;;;;;;6.15;2.20;;;24.10;99.90;;;;;;5346827;26;20055;-50
2024/04/20 10:32:36;;;;;;;4.70;2.15;;;24.00;99.90;;;;;;5346569;26;20009;-50
2024/04/20 10:35:06;;;;;;;5.72;1.77;;;24.10;99.90;;;;;;5346747;26;20000;-50
2024/04/20 10:37:32;;;;;;;5.75;1.73;;;24.10;99.90;;;;;;5347131;26;19996;-51
2024/04/20 10:40:11;;;;;;;5.72;2.25;;;24.10;99.90;;;;;;5346770;26;19997;-51
2024/04/20 10:42:37;;;;;;;5.13;1.55;;;24.10;99.90;;;;;;5346482;26;19997;-51
2024/04/20 10:45:06;;;;;;;4.95;2.05;;;24.10;99.90;;;;;;5345508;26;20001;-52
2024/04/20 10:47:33;;;;;;;6.80;2.28;;;24.10;99.90;;;;;;5346629;26;20029;-51
2024/04/20 10:49:58;;;;;;;5.30;2.17;;;24.10;99.90;;;;;;5346597;26;20040;-51
2024/04/20 10:52:26;;;;;;;5.20;1.83;;;24.10;99.90;;;;;;5346206;26;20075;-51
2024/04/20 10:54:52;;;;;;;7.30;2.20;;;24.10;99.90;;;;;;5346225;26;20001;-51
2024/04/20 10:57:18;;;;;;;8.50;2.03;;;24.10;99.90;;;;;;5346507;26;20004;-51
2024/04/20 10:59:45;;;;;;;4.85;2.05;;;24.10;99.90;;;;;;5346748;26;20116;-51
2024/04/20 11:02:16;;;;;;;4.10;1.90;;;24.10;99.90;;;;;;5346797;26;20000;-51
2024/04/20 11:04:43;;;;;;;6.50;2.33;;;24.10;99.90;;;;;;5373879;26;20012;-51
2024/04/20 11:07:09;;;;;;;8.35;2.10;;;24.20;99.90;;;;;;5346348;26;20028;-51
2024/04/20 11:09:35;;;;;;;6.13;1.98;;;24.10;99.90;;;;;;5346349;26;20001;-51
2024/04/20 11:12:03;;;;;;;4.07;1.93;;;24.10;99.90;;;;;;5346270;26;19997;-51
2024/04/20 11:14:33;;;;;;;4.25;1.83;;;24.20;99.90;;;;;;5373618;26;20223;-51
2024/04/20 11:17:08;;;;;;;4.05;2.03;;;24.10;99.90;;;;;;5346258;26;20016;-51
2024/04/20 11:19:35;;;;;;;5.38;1.55;;;24.20;99.90;;;;;;5373395;26;20008;-51
2024/04/20 11:22:01;;;;;;;6.03;2.17;;;24.20;99.90;;;;;;5346243;26;20067;-50
2024/04/20 11:24:28;;;;;;;4.95;2.08;;;24.20;99.90;;;;;;5346156;26;20605;-50
2024/04/20 11:27:09;;;;;;;6.25;2.22;;;24.20;99.90;;;;;;5346201;26;20338;-50
2024/04/20 11:29:35;;;;;;;3.67;2.08;;;24.20;99.90;;;;;;5346130;26;20012;-51
2024/04/20 11:32:02;;;;;;;5.05;2.10;;;24.20;99.90;;;;;;5345871;26;20433;-51
2024/04/20 11:34:28;;;;;;;6.50;2.00;;;24.20;99.90;;;;;;5346262;26;19996;-50
2024/04/20 11:36:54;;;;;;;6.00;1.90;;;24.20;99.90;;;;;;5346366;26;20461;-50
2024/04/20 11:39:21;;;;;;;5.68;2.30;;;24.30;99.90;;;;;;5346416;26;19997;-51
2024/04/20 11:41:47;;;;;;;10.05;2.28;;;24.30;99.90;;;;;;5346198;26;20074;-51
2024/04/20 11:44:13;;;;;;;4.60;2.00;;;24.30;99.90;;;;;;5346251;26;20417;-50
2024/04/20 11:46:39;;;;;;;3.17;1.70;;;24.30;99.90;;;;;;5373273;26;19997;-50
2024/04/20 11:49:15;;;;;;;3.85;1.95;;;24.30;99.90;;;;;;5345649;26;20898;-50
2024/04/20 11:54:25;;;;;;;5.43;2.10;;;24.30;99.90;;;;;;5345209;26;20000;-51
2024/04/20 11:56:55;;;;;;;5.53;1.70;;;24.40;99.90;;;;;;5345647;26;20000;-49
2024/04/20 11:59:23;;;;;;;5.13;2.08;;;24.40;99.90;;;;;;5345588;26;20420;-50
2024/04/20 12:01:49;;;;;;;4.85;1.70;;;24.40;99.90;;;;;;5345628;26;20025;-50
2024/04/20 12:04:15;;;;;;;4.80;2.10;;;24.40;99.90;;;;;;5372827;26;20012;-50
2024/04/20 12:06:42;;;;;;;5.90;2.40;;;24.40;99.90;;;;;;5345730;26;19997;-50
2024/04/20 12:09:08;;;;;;;5.10;1.92;;;24.40;99.90;;;;;;5372567;26;20012;-50
2024/04/20 12:11:34;;;;;;;4.85;1.77;;;24.50;99.90;;;;;;5345346;26;19997;-50
2024/04/20 12:14:03;;;;;;;4.90;1.90;;;24.50;99.90;;;;;;5372966;26;20344;-50
2024/04/20 12:16:29;;;;;;;5.00;1.73;;;24.50;99.90;;;;;;5345694;26;20067;-50
2024/04/20 12:18:55;;;;;;;5.25;2.00;;;24.50;99.90;;;;;;5345342;26;20439;-53
2024/04/20 12:21:21;;;;;;;4.47;1.75;;;24.50;99.90;;;;;;5345163;26;20016;-50
2024/04/20 12:23:47;;;;;;;5.93;1.92;;;24.50;99.90;;;;;;5345766;26;20013;-51
2024/04/20 12:26:13;;;;;;;3.92;1.58;;;24.50;99.90;;;;;;5345734;26;19997;-49
2024/04/20 12:28:39;;;;;;;6.35;1.75;;;24.50;99.90;;;;;;5345185;26;19997;-50
2024/04/20 12:31:05;;;;;;;6.88;1.83;;;24.50;99.90;;;;;;5344929;26;20011;-50
2024/04/20 12:33:31;;;;;;;5.43;1.60;;;24.50;99.90;;;;;;5344710;26;19997;-50
2024/04/20 12:35:57;;;;;;;5.00;2.05;;;24.50;99.90;;;;;;5344802;26;20024;-51
2024/04/20 12:38:23;;;;;;;7.60;2.53;;;24.50;99.90;;;;;;5345096;26;20000;-51
2024/04/20 12:40:49;;;;;;;5.20;2.40;;;24.50;99.90;;;;;;5345031;26;20011;-50
2024/04/20 12:43:16;;;;;;;5.50;2.30;;;24.50;99.90;;;;;;5345078;26;20008;-51
2024/04/20 12:45:42;;;;;;;4.93;2.03;;;24.50;99.90;;;;;;5372272;26;20007;-50
2024/04/20 12:48:08;;;;;;;3.63;1.50;;;24.50;99.90;;;;;;5345109;26;19996;-50